sensor_id;sensor_type;location;lat;lon;timestamp;P1;durP1;ratioP1;P2;durP2;ratioP2
52057;SDS011;38063;53.210;6.504;2023-05-10T00:02:08;14.98;;;11.23;;
52057;SDS011;38063;53.210;6.504;2023-05-10T00:04:34;12.65;;;10.13;;
52057;SDS011;38063;53.210;6.504;2023-05-10T00:07:00;11.15;;;9.95;;
52057;SDS011;38063;53.210;6.504;2023-05-10T00:09:25;13.10;;;9.82;;
52057;SDS011;38063;53.210;6.504;2023-05-10T00:11:51;12.75;;;9.23;;
52057;SDS011;38063;53.210;6.504;2023-05-10T00:14:16;12.13;;;9.15;;
52057;SDS011;38063;53.210;6.504;2023-05-10T00:16:42;11.25;;;8.52;;
52057;SDS011;38063;53.210;6.504;2023-05-10T00:19:08;11.25;;;8.05;;
52057;SDS011;38063;53.210;6.504;2023-05-10T00:21:33;11.80;;;8.90;;
52057;SDS011;38063;53.210;6.504;2023-05-10T00:23:59;11.52;;;8.60;;
52057;SDS011;38063;53.210;6.504;2023-05-10T00:26:26;10.45;;;8.38;;
52057;SDS011;38063;53.210;6.504;2023-05-10T00:28:52;11.10;;;9.18;;
52057;SDS011;38063;53.210;6.504;2023-05-10T00:31:17;10.77;;;8.57;;
52057;SDS011;38063;53.210;6.504;2023-05-10T00:33:43;11.20;;;8.40;;
52057;SDS011;38063;53.210;6.504;2023-05-10T00:36:09;11.77;;;9.13;;
52057;SDS011;38063;53.210;6.504;2023-05-10T00:38:34;11.32;;;8.55;;
52057;SDS011;38063;53.210;6.504;2023-05-10T00:41:00;9.18;;;7.95;;
52057;SDS011;38063;53.210;6.504;2023-05-10T00:43:26;11.68;;;8.60;;
52057;SDS011;38063;53.210;6.504;2023-05-10T00:45:52;9.73;;;7.93;;
52057;SDS011;38063;53.210;6.504;2023-05-10T00:48:17;12.98;;;8.10;;
52057;SDS011;38063;53.210;6.504;2023-05-10T00:50:43;11.55;;;8.05;;
52057;SDS011;38063;53.210;6.504;2023-05-10T00:53:09;9.20;;;7.22;;
52057;SDS011;38063;53.210;6.504;2023-05-10T00:55:35;9.73;;;7.95;;
52057;SDS011;38063;53.210;6.504;2023-05-10T00:58:02;9.25;;;7.30;;
52057;SDS011;38063;53.210;6.504;2023-05-10T01:00:28;8.93;;;7.50;;
52057;SDS011;38063;53.210;6.504;2023-05-10T01:02:54;9.02;;;7.07;;
52057;SDS011;38063;53.210;6.504;2023-05-10T01:05:20;9.90;;;7.68;;
52057;SDS011;38063;53.210;6.504;2023-05-10T01:07:46;12.27;;;8.90;;
52057;SDS011;38063;53.210;6.504;2023-05-10T01:10:13;12.20;;;8.85;;
52057;SDS011;38063;53.210;6.504;2023-05-10T01:12:40;13.40;;;9.63;;
52057;SDS011;38063;53.210;6.504;2023-05-10T01:15:07;11.73;;;9.13;;
52057;SDS011;38063;53.210;6.504;2023-05-10T01:17:38;11.45;;;8.82;;
52057;SDS011;38063;53.210;6.504;2023-05-10T01:20:05;10.45;;;8.63;;
52057;SDS011;38063;53.210;6.504;2023-05-10T01:22:42;10.98;;;8.77;;
52057;SDS011;38063;53.210;6.504;2023-05-10T01:25:35;10.70;;;8.52;;
52057;SDS011;38063;53.210;6.504;2023-05-10T01:33:27;11.30;;;8.63;;
52057;SDS011;38063;53.210;6.504;2023-05-10T01:36:19;12.52;;;9.45;;
52057;SDS011;38063;53.210;6.504;2023-05-10T01:41:40;12.07;;;9.35;;
52057;SDS011;38063;53.210;6.504;2023-05-10T01:46:36;11.30;;;8.57;;
52057;SDS011;38063;53.210;6.504;2023-05-10T01:49:06;12.65;;;9.25;;
52057;SDS011;38063;53.210;6.504;2023-05-10T01:51:39;11.68;;;8.73;;
52057;SDS011;38063;53.210;6.504;2023-05-10T01:54:13;11.15;;;8.25;;
52057;SDS011;38063;53.210;6.504;2023-05-10T01:56:44;11.60;;;8.63;;
52057;SDS011;38063;53.210;6.504;2023-05-10T01:59:13;9.88;;;8.02;;
52057;SDS011;38063;53.210;6.504;2023-05-10T02:01:43;10.30;;;7.70;;
52057;SDS011;38063;53.210;6.504;2023-05-10T02:04:11;10.88;;;7.57;;
52057;SDS011;38063;53.210;6.504;2023-05-10T02:06:41;8.95;;;7.43;;
52057;SDS011;38063;53.210;6.504;2023-05-10T02:09:09;10.40;;;7.95;;
52057;SDS011;38063;53.210;6.504;2023-05-10T02:11:37;11.40;;;8.00;;
52057;SDS011;38063;53.210;6.504;2023-05-10T02:14:05;10.85;;;8.10;;
52057;SDS011;38063;53.210;6.504;2023-05-10T02:16:34;9.65;;;8.27;;
52057;SDS011;38063;53.210;6.504;2023-05-10T02:19:01;12.57;;;9.05;;
52057;SDS011;38063;53.210;6.504;2023-05-10T02:21:28;10.77;;;7.95;;
52057;SDS011;38063;53.210;6.504;2023-05-10T02:23:56;12.32;;;9.23;;
52057;SDS011;38063;53.210;6.504;2023-05-10T02:26:23;12.27;;;8.73;;
52057;SDS011;38063;53.210;6.504;2023-05-10T02:28:50;14.10;;;9.60;;
52057;SDS011;38063;53.210;6.504;2023-05-10T02:31:18;11.55;;;9.45;;
52057;SDS011;38063;53.210;6.504;2023-05-10T02:33:44;14.10;;;9.38;;
52057;SDS011;38063;53.210;6.504;2023-05-10T02:36:11;16.65;;;10.60;;
52057;SDS011;38063;53.210;6.504;2023-05-10T02:38:38;13.30;;;10.18;;
52057;SDS011;38063;53.210;6.504;2023-05-10T02:41:05;14.40;;;10.45;;
52057;SDS011;38063;53.210;6.504;2023-05-10T02:43:34;14.43;;;10.90;;
52057;SDS011;38063;53.210;6.504;2023-05-10T02:46:02;14.88;;;10.95;;
52057;SDS011;38063;53.210;6.504;2023-05-10T02:48:28;16.90;;;11.88;;
52057;SDS011;38063;53.210;6.504;2023-05-10T02:50:54;17.98;;;12.27;;
52057;SDS011;38063;53.210;6.504;2023-05-10T02:53:30;17.38;;;11.93;;
52057;SDS011;38063;53.210;6.504;2023-05-10T02:55:57;18.80;;;13.18;;
52057;SDS011;38063;53.210;6.504;2023-05-10T02:58:25;22.05;;;13.35;;
52057;SDS011;38063;53.210;6.504;2023-05-10T03:00:52;18.27;;;12.80;;
52057;SDS011;38063;53.210;6.504;2023-05-10T03:03:18;22.95;;;13.68;;
52057;SDS011;38063;53.210;6.504;2023-05-10T03:05:44;20.30;;;14.20;;
52057;SDS011;38063;53.210;6.504;2023-05-10T03:08:10;22.15;;;14.00;;
52057;SDS011;38063;53.210;6.504;2023-05-10T03:10:38;20.70;;;13.30;;
52057;SDS011;38063;53.210;6.504;2023-05-10T03:13:24;20.85;;;13.95;;
52057;SDS011;38063;53.210;6.504;2023-05-10T03:15:58;20.58;;;13.98;;
52057;SDS011;38063;53.210;6.504;2023-05-10T03:18:42;19.30;;;13.77;;
52057;SDS011;38063;53.210;6.504;2023-05-10T03:21:13;22.20;;;14.02;;
52057;SDS011;38063;53.210;6.504;2023-05-10T03:23:49;20.92;;;13.43;;
52057;SDS011;38063;53.210;6.504;2023-05-10T03:26:18;20.10;;;13.88;;
52057;SDS011;38063;53.210;6.504;2023-05-10T03:28:48;17.70;;;13.63;;
52057;SDS011;38063;53.210;6.504;2023-05-10T03:31:15;27.08;;;14.82;;
52057;SDS011;38063;53.210;6.504;2023-05-10T03:33:49;21.40;;;14.40;;
52057;SDS011;38063;53.210;6.504;2023-05-10T03:36:15;23.33;;;15.15;;
52057;SDS011;38063;53.210;6.504;2023-05-10T03:38:41;22.42;;;15.73;;
52057;SDS011;38063;53.210;6.504;2023-05-10T03:41:07;22.25;;;15.50;;
52057;SDS011;38063;53.210;6.504;2023-05-10T03:43:32;24.77;;;15.70;;
52057;SDS011;38063;53.210;6.504;2023-05-10T03:45:58;26.00;;;16.42;;
52057;SDS011;38063;53.210;6.504;2023-05-10T03:48:23;27.20;;;16.42;;
52057;SDS011;38063;53.210;6.504;2023-05-10T03:50:49;24.13;;;15.88;;
52057;SDS011;38063;53.210;6.504;2023-05-10T03:53:15;29.23;;;18.08;;
52057;SDS011;38063;53.210;6.504;2023-05-10T03:55:41;28.40;;;16.92;;
52057;SDS011;38063;53.210;6.504;2023-05-10T03:58:06;28.10;;;16.70;;
52057;SDS011;38063;53.210;6.504;2023-05-10T04:00:36;31.98;;;17.33;;
52057;SDS011;38063;53.210;6.504;2023-05-10T04:03:02;34.38;;;17.58;;
52057;SDS011;38063;53.210;6.504;2023-05-10T04:05:27;30.20;;;17.50;;
52057;SDS011;38063;53.210;6.504;2023-05-10T04:07:53;30.48;;;16.25;;
52057;SDS011;38063;53.210;6.504;2023-05-10T04:10:19;25.27;;;15.05;;
52057;SDS011;38063;53.210;6.504;2023-05-10T04:12:45;26.17;;;14.15;;
52057;SDS011;38063;53.210;6.504;2023-05-10T04:15:11;20.05;;;11.77;;
52057;SDS011;38063;53.210;6.504;2023-05-10T04:17:36;21.08;;;12.00;;
52057;SDS011;38063;53.210;6.504;2023-05-10T04:20:02;15.88;;;9.95;;
52057;SDS011;38063;53.210;6.504;2023-05-10T04:22:28;13.27;;;8.57;;
52057;SDS011;38063;53.210;6.504;2023-05-10T04:24:54;12.02;;;7.97;;
52057;SDS011;38063;53.210;6.504;2023-05-10T04:27:20;11.77;;;7.50;;
52057;SDS011;38063;53.210;6.504;2023-05-10T04:29:45;8.50;;;6.93;;
52057;SDS011;38063;53.210;6.504;2023-05-10T04:32:11;9.45;;;6.90;;
52057;SDS011;38063;53.210;6.504;2023-05-10T04:34:37;7.80;;;6.35;;
52057;SDS011;38063;53.210;6.504;2023-05-10T04:37:02;7.20;;;6.07;;
52057;SDS011;38063;53.210;6.504;2023-05-10T04:39:28;7.15;;;6.13;;
52057;SDS011;38063;53.210;6.504;2023-05-10T04:41:54;9.07;;;6.03;;
52057;SDS011;38063;53.210;6.504;2023-05-10T04:44:19;8.65;;;6.50;;
52057;SDS011;38063;53.210;6.504;2023-05-10T04:46:45;8.40;;;6.30;;
52057;SDS011;38063;53.210;6.504;2023-05-10T04:49:11;8.80;;;6.68;;
52057;SDS011;38063;53.210;6.504;2023-05-10T04:51:36;9.05;;;6.88;;
52057;SDS011;38063;53.210;6.504;2023-05-10T04:54:02;8.95;;;6.50;;
52057;SDS011;38063;53.210;6.504;2023-05-10T04:56:28;8.82;;;7.20;;
52057;SDS011;38063;53.210;6.504;2023-05-10T04:58:53;8.70;;;6.65;;
52057;SDS011;38063;53.210;6.504;2023-05-10T05:01:19;10.25;;;7.85;;
52057;SDS011;38063;53.210;6.504;2023-05-10T05:03:45;9.05;;;7.50;;
52057;SDS011;38063;53.210;6.504;2023-05-10T05:06:10;11.48;;;8.23;;
52057;SDS011;38063;53.210;6.504;2023-05-10T05:08:36;14.55;;;8.10;;
52057;SDS011;38063;53.210;6.504;2023-05-10T05:11:02;14.93;;;7.53;;
52057;SDS011;38063;53.210;6.504;2023-05-10T05:13:28;10.32;;;7.82;;
52057;SDS011;38063;53.210;6.504;2023-05-10T05:15:53;12.98;;;7.70;;
52057;SDS011;38063;53.210;6.504;2023-05-10T05:18:19;10.30;;;8.00;;
52057;SDS011;38063;53.210;6.504;2023-05-10T05:20:45;11.68;;;7.60;;
52057;SDS011;38063;53.210;6.504;2023-05-10T05:23:11;12.35;;;7.97;;
52057;SDS011;38063;53.210;6.504;2023-05-10T05:25:36;11.65;;;7.30;;
52057;SDS011;38063;53.210;6.504;2023-05-10T05:28:02;13.88;;;7.80;;
52057;SDS011;38063;53.210;6.504;2023-05-10T05:30:28;10.20;;;7.45;;
52057;SDS011;38063;53.210;6.504;2023-05-10T05:32:54;11.15;;;7.68;;
52057;SDS011;38063;53.210;6.504;2023-05-10T05:35:19;11.23;;;7.40;;
52057;SDS011;38063;53.210;6.504;2023-05-10T05:37:45;12.60;;;7.90;;
52057;SDS011;38063;53.210;6.504;2023-05-10T05:40:14;12.85;;;7.80;;
52057;SDS011;38063;53.210;6.504;2023-05-10T05:42:40;11.63;;;7.00;;
52057;SDS011;38063;53.210;6.504;2023-05-10T05:45:06;11.82;;;7.55;;
52057;SDS011;38063;53.210;6.504;2023-05-10T05:47:33;10.95;;;7.88;;
52057;SDS011;38063;53.210;6.504;2023-05-10T05:49:59;13.40;;;7.60;;
52057;SDS011;38063;53.210;6.504;2023-05-10T05:52:25;12.15;;;7.70;;
52057;SDS011;38063;53.210;6.504;2023-05-10T05:54:50;10.10;;;7.28;;
52057;SDS011;38063;53.210;6.504;2023-05-10T05:57:16;13.02;;;7.35;;
52057;SDS011;38063;53.210;6.504;2023-05-10T05:59:41;12.50;;;7.95;;
52057;SDS011;38063;53.210;6.504;2023-05-10T06:02:09;11.07;;;6.53;;
52057;SDS011;38063;53.210;6.504;2023-05-10T06:04:35;10.00;;;6.45;;
52057;SDS011;38063;53.210;6.504;2023-05-10T06:07:01;7.55;;;5.13;;
52057;SDS011;38063;53.210;6.504;2023-05-10T06:09:26;6.70;;;4.22;;
52057;SDS011;38063;53.210;6.504;2023-05-10T06:11:52;4.65;;;3.55;;
52057;SDS011;38063;53.210;6.504;2023-05-10T06:14:20;3.60;;;2.63;;
52057;SDS011;38063;53.210;6.504;2023-05-10T06:16:46;3.85;;;2.75;;
52057;SDS011;38063;53.210;6.504;2023-05-10T06:19:11;5.22;;;3.40;;
52057;SDS011;38063;53.210;6.504;2023-05-10T06:21:37;5.03;;;3.40;;
52057;SDS011;38063;53.210;6.504;2023-05-10T06:24:03;4.90;;;3.50;;
52057;SDS011;38063;53.210;6.504;2023-05-10T06:26:30;7.93;;;5.20;;
52057;SDS011;38063;53.210;6.504;2023-05-10T06:28:56;12.30;;;7.60;;
52057;SDS011;38063;53.210;6.504;2023-05-10T06:31:21;13.43;;;8.60;;
52057;SDS011;38063;53.210;6.504;2023-05-10T06:33:47;16.67;;;10.40;;
52057;SDS011;38063;53.210;6.504;2023-05-10T06:36:12;16.85;;;10.55;;
52057;SDS011;38063;53.210;6.504;2023-05-10T06:38:38;19.95;;;12.60;;
52057;SDS011;38063;53.210;6.504;2023-05-10T06:41:04;20.92;;;13.38;;
52057;SDS011;38063;53.210;6.504;2023-05-10T06:43:30;20.25;;;12.60;;
52057;SDS011;38063;53.210;6.504;2023-05-10T06:45:56;18.75;;;11.45;;
52057;SDS011;38063;53.210;6.504;2023-05-10T06:48:22;19.50;;;11.48;;
52057;SDS011;38063;53.210;6.504;2023-05-10T06:50:48;21.35;;;11.27;;
52057;SDS011;38063;53.210;6.504;2023-05-10T06:53:14;14.18;;;8.90;;
52057;SDS011;38063;53.210;6.504;2023-05-10T06:55:40;15.80;;;8.77;;
52057;SDS011;38063;53.210;6.504;2023-05-10T06:58:06;11.65;;;7.40;;
52057;SDS011;38063;53.210;6.504;2023-05-10T07:00:31;14.40;;;7.53;;
52057;SDS011;38063;53.210;6.504;2023-05-10T07:02:57;9.55;;;6.28;;
52057;SDS011;38063;53.210;6.504;2023-05-10T07:05:23;9.68;;;6.53;;
52057;SDS011;38063;53.210;6.504;2023-05-10T07:07:49;8.90;;;5.90;;
52057;SDS011;38063;53.210;6.504;2023-05-10T07:10:15;9.05;;;6.25;;
52057;SDS011;38063;53.210;6.504;2023-05-10T07:12:41;8.60;;;6.35;;
52057;SDS011;38063;53.210;6.504;2023-05-10T07:15:06;7.55;;;6.03;;
52057;SDS011;38063;53.210;6.504;2023-05-10T07:17:33;8.60;;;5.50;;
52057;SDS011;38063;53.210;6.504;2023-05-10T07:19:59;7.13;;;5.00;;
52057;SDS011;38063;53.210;6.504;2023-05-10T07:22:25;6.50;;;4.82;;
52057;SDS011;38063;53.210;6.504;2023-05-10T07:24:51;7.85;;;5.28;;
52057;SDS011;38063;53.210;6.504;2023-05-10T07:27:16;7.13;;;5.40;;
52057;SDS011;38063;53.210;6.504;2023-05-10T07:29:42;8.10;;;5.05;;
52057;SDS011;38063;53.210;6.504;2023-05-10T07:32:07;6.68;;;5.05;;
52057;SDS011;38063;53.210;6.504;2023-05-10T07:34:33;6.90;;;5.20;;
52057;SDS011;38063;53.210;6.504;2023-05-10T07:36:59;5.97;;;4.32;;
52057;SDS011;38063;53.210;6.504;2023-05-10T07:39:25;4.90;;;3.95;;
52057;SDS011;38063;53.210;6.504;2023-05-10T07:41:52;4.43;;;3.53;;
52057;SDS011;38063;53.210;6.504;2023-05-10T07:44:17;5.47;;;3.90;;
52057;SDS011;38063;53.210;6.504;2023-05-10T07:46:45;4.55;;;3.60;;
52057;SDS011;38063;53.210;6.504;2023-05-10T07:49:11;3.83;;;3.42;;
52057;SDS011;38063;53.210;6.504;2023-05-10T07:51:36;4.30;;;3.90;;
52057;SDS011;38063;53.210;6.504;2023-05-10T07:54:02;4.65;;;4.13;;
52057;SDS011;38063;53.210;6.504;2023-05-10T07:56:31;5.80;;;4.60;;
52057;SDS011;38063;53.210;6.504;2023-05-10T07:59:01;5.93;;;4.50;;
52057;SDS011;38063;53.210;6.504;2023-05-10T08:01:32;5.60;;;4.00;;
52057;SDS011;38063;53.210;6.504;2023-05-10T08:03:59;5.28;;;3.85;;
52057;SDS011;38063;53.210;6.504;2023-05-10T08:06:25;5.68;;;3.70;;
52057;SDS011;38063;53.210;6.504;2023-05-10T08:08:53;6.22;;;3.97;;
52057;SDS011;38063;53.210;6.504;2023-05-10T08:11:22;5.88;;;4.70;;
52057;SDS011;38063;53.210;6.504;2023-05-10T08:13:48;6.68;;;4.80;;
52057;SDS011;38063;53.210;6.504;2023-05-10T08:16:15;6.32;;;4.72;;
52057;SDS011;38063;53.210;6.504;2023-05-10T08:18:41;6.85;;;4.88;;
52057;SDS011;38063;53.210;6.504;2023-05-10T08:21:08;5.43;;;4.50;;
52057;SDS011;38063;53.210;6.504;2023-05-10T08:23:35;5.63;;;4.15;;
52057;SDS011;38063;53.210;6.504;2023-05-10T08:26:01;7.03;;;4.90;;
52057;SDS011;38063;53.210;6.504;2023-05-10T08:28:27;5.82;;;4.30;;
52057;SDS011;38063;53.210;6.504;2023-05-10T08:30:52;5.00;;;3.90;;
52057;SDS011;38063;53.210;6.504;2023-05-10T08:33:18;4.47;;;3.65;;
52057;SDS011;38063;53.210;6.504;2023-05-10T08:35:44;4.53;;;3.95;;
52057;SDS011;38063;53.210;6.504;2023-05-10T08:38:10;5.70;;;4.45;;
52057;SDS011;38063;53.210;6.504;2023-05-10T08:40:42;6.35;;;5.10;;
52057;SDS011;38063;53.210;6.504;2023-05-10T08:43:09;6.72;;;5.68;;
52057;SDS011;38063;53.210;6.504;2023-05-10T08:45:37;7.80;;;6.35;;
52057;SDS011;38063;53.210;6.504;2023-05-10T08:48:05;9.57;;;6.35;;
52057;SDS011;38063;53.210;6.504;2023-05-10T08:50:33;6.30;;;5.13;;
52057;SDS011;38063;53.210;6.504;2023-05-10T08:53:02;8.75;;;5.32;;
52057;SDS011;38063;53.210;6.504;2023-05-10T08:55:30;8.65;;;5.97;;
52057;SDS011;38063;53.210;6.504;2023-05-10T08:57:57;7.47;;;5.15;;
52057;SDS011;38063;53.210;6.504;2023-05-10T09:00:24;7.15;;;4.90;;
52057;SDS011;38063;53.210;6.504;2023-05-10T09:02:51;5.15;;;4.18;;
52057;SDS011;38063;53.210;6.504;2023-05-10T09:05:17;5.53;;;4.60;;
52057;SDS011;38063;53.210;6.504;2023-05-10T09:07:43;5.68;;;4.18;;
52057;SDS011;38063;53.210;6.504;2023-05-10T09:10:09;7.78;;;4.85;;
52057;SDS011;38063;53.210;6.504;2023-05-10T09:12:36;8.40;;;5.32;;
52057;SDS011;38063;53.210;6.504;2023-05-10T09:15:02;7.28;;;5.00;;
52057;SDS011;38063;53.210;6.504;2023-05-10T09:17:30;7.70;;;5.07;;
52057;SDS011;38063;53.210;6.504;2023-05-10T09:19:57;6.15;;;4.82;;
52057;SDS011;38063;53.210;6.504;2023-05-10T09:22:26;7.05;;;4.47;;
52057;SDS011;38063;53.210;6.504;2023-05-10T09:25:05;8.43;;;4.72;;
52057;SDS011;38063;53.210;6.504;2023-05-10T09:27:35;7.38;;;4.75;;
52057;SDS011;38063;53.210;6.504;2023-05-10T09:30:01;8.38;;;5.40;;
52057;SDS011;38063;53.210;6.504;2023-05-10T09:32:37;8.07;;;5.85;;
52057;SDS011;38063;53.210;6.504;2023-05-10T09:37:40;7.38;;;5.60;;
52057;SDS011;38063;53.210;6.504;2023-05-10T09:40:08;7.20;;;5.30;;
52057;SDS011;38063;53.210;6.504;2023-05-10T09:42:37;8.77;;;5.50;;
52057;SDS011;38063;53.210;6.504;2023-05-10T09:45:06;10.20;;;5.72;;
52057;SDS011;38063;53.210;6.504;2023-05-10T09:47:32;7.57;;;5.50;;
52057;SDS011;38063;53.210;6.504;2023-05-10T09:50:02;7.45;;;6.10;;
52057;SDS011;38063;53.210;6.504;2023-05-10T09:52:51;7.32;;;5.63;;
52057;SDS011;38063;53.210;6.504;2023-05-10T09:58:05;8.05;;;5.38;;
52057;SDS011;38063;53.210;6.504;2023-05-10T10:00:39;8.35;;;6.05;;
52057;SDS011;38063;53.210;6.504;2023-05-10T10:03:06;8.40;;;5.47;;
52057;SDS011;38063;53.210;6.504;2023-05-10T10:05:36;9.63;;;5.45;;
52057;SDS011;38063;53.210;6.504;2023-05-10T10:08:07;8.23;;;5.72;;
52057;SDS011;38063;53.210;6.504;2023-05-10T10:10:33;6.95;;;4.75;;
52057;SDS011;38063;53.210;6.504;2023-05-10T10:12:59;7.50;;;5.25;;
52057;SDS011;38063;53.210;6.504;2023-05-10T10:15:27;9.50;;;5.60;;
52057;SDS011;38063;53.210;6.504;2023-05-10T10:17:53;9.40;;;6.15;;
52057;SDS011;38063;53.210;6.504;2023-05-10T10:20:19;10.05;;;5.07;;
52057;SDS011;38063;53.210;6.504;2023-05-10T10:22:47;9.05;;;5.80;;
52057;SDS011;38063;53.210;6.504;2023-05-10T10:25:14;7.20;;;5.38;;
52057;SDS011;38063;53.210;6.504;2023-05-10T10:36:03;6.65;;;5.05;;
52057;SDS011;38063;53.210;6.504;2023-05-10T10:38:36;9.00;;;5.38;;
52057;SDS011;38063;53.210;6.504;2023-05-10T10:41:48;9.30;;;6.57;;
52057;SDS011;38063;53.210;6.504;2023-05-10T10:49:33;8.65;;;7.25;;
52057;SDS011;38063;53.210;6.504;2023-05-10T10:54:38;9.57;;;7.25;;
52057;SDS011;38063;53.210;6.504;2023-05-10T10:57:10;7.95;;;6.75;;
52057;SDS011;38063;53.210;6.504;2023-05-10T10:59:44;8.30;;;5.78;;
52057;SDS011;38063;53.210;6.504;2023-05-10T11:02:10;8.05;;;6.15;;
52057;SDS011;38063;53.210;6.504;2023-05-10T11:04:55;9.10;;;6.13;;
52057;SDS011;38063;53.210;6.504;2023-05-10T11:07:21;7.78;;;5.20;;
52057;SDS011;38063;53.210;6.504;2023-05-10T11:09:48;6.53;;;5.78;;
52057;SDS011;38063;53.210;6.504;2023-05-10T11:12:13;8.50;;;6.60;;
52057;SDS011;38063;53.210;6.504;2023-05-10T11:14:39;10.77;;;6.85;;
52057;SDS011;38063;53.210;6.504;2023-05-10T11:20:07;12.77;;;7.35;;
52057;SDS011;38063;53.210;6.504;2023-05-10T11:22:52;11.85;;;8.00;;
52057;SDS011;38063;53.210;6.504;2023-05-10T11:25:19;11.77;;;8.70;;
52057;SDS011;38063;53.210;6.504;2023-05-10T11:27:51;11.07;;;7.30;;
52057;SDS011;38063;53.210;6.504;2023-05-10T11:30:17;10.98;;;8.55;;
52057;SDS011;38063;53.210;6.504;2023-05-10T11:32:42;12.48;;;8.45;;
52057;SDS011;38063;53.210;6.504;2023-05-10T11:35:09;12.65;;;8.70;;
52057;SDS011;38063;53.210;6.504;2023-05-10T11:37:36;14.07;;;8.05;;
52057;SDS011;38063;53.210;6.504;2023-05-10T11:40:06;12.48;;;8.65;;
52057;SDS011;38063;53.210;6.504;2023-05-10T11:42:35;13.23;;;8.48;;
52057;SDS011;38063;53.210;6.504;2023-05-10T11:45:05;11.38;;;8.60;;
52057;SDS011;38063;53.210;6.504;2023-05-10T11:47:31;10.93;;;7.30;;
52057;SDS011;38063;53.210;6.504;2023-05-10T11:49:57;12.48;;;7.28;;
52057;SDS011;38063;53.210;6.504;2023-05-10T11:52:23;9.65;;;7.15;;
52057;SDS011;38063;53.210;6.504;2023-05-10T11:54:52;10.20;;;7.65;;
52057;SDS011;38063;53.210;6.504;2023-05-10T11:57:19;12.73;;;7.82;;
52057;SDS011;38063;53.210;6.504;2023-05-10T11:59:52;13.15;;;8.20;;
52057;SDS011;38063;53.210;6.504;2023-05-10T12:02:19;11.60;;;8.20;;
52057;SDS011;38063;53.210;6.504;2023-05-10T12:04:45;15.38;;;9.05;;
52057;SDS011;38063;53.210;6.504;2023-05-10T12:07:10;18.92;;;10.35;;
52057;SDS011;38063;53.210;6.504;2023-05-10T12:09:36;22.95;;;10.98;;
52057;SDS011;38063;53.210;6.504;2023-05-10T12:12:02;19.05;;;10.35;;
52057;SDS011;38063;53.210;6.504;2023-05-10T12:14:28;17.52;;;10.43;;
52057;SDS011;38063;53.210;6.504;2023-05-10T12:16:58;14.38;;;10.02;;
52057;SDS011;38063;53.210;6.504;2023-05-10T12:19:23;17.48;;;10.15;;
52057;SDS011;38063;53.210;6.504;2023-05-10T12:21:49;14.05;;;9.00;;
52057;SDS011;38063;53.210;6.504;2023-05-10T12:24:15;15.55;;;10.05;;
52057;SDS011;38063;53.210;6.504;2023-05-10T12:26:45;13.13;;;9.50;;
52057;SDS011;38063;53.210;6.504;2023-05-10T12:29:17;14.40;;;9.40;;
52057;SDS011;38063;53.210;6.504;2023-05-10T12:34:26;14.32;;;9.07;;
52057;SDS011;38063;53.210;6.504;2023-05-10T12:36:54;17.27;;;9.27;;
52057;SDS011;38063;53.210;6.504;2023-05-10T12:39:20;12.88;;;8.48;;
52057;SDS011;38063;53.210;6.504;2023-05-10T12:41:46;12.68;;;8.93;;
52057;SDS011;38063;53.210;6.504;2023-05-10T12:44:12;14.95;;;8.68;;
52057;SDS011;38063;53.210;6.504;2023-05-10T12:46:37;13.05;;;9.00;;
52057;SDS011;38063;53.210;6.504;2023-05-10T12:49:03;9.77;;;7.63;;
52057;SDS011;38063;53.210;6.504;2023-05-10T12:51:29;11.98;;;8.68;;
52057;SDS011;38063;53.210;6.504;2023-05-10T12:53:55;12.23;;;9.02;;
52057;SDS011;38063;53.210;6.504;2023-05-10T12:56:21;13.38;;;7.65;;
52057;SDS011;38063;53.210;6.504;2023-05-10T12:58:47;11.40;;;8.07;;
52057;SDS011;38063;53.210;6.504;2023-05-10T13:01:13;10.60;;;7.63;;
52057;SDS011;38063;53.210;6.504;2023-05-10T13:03:39;10.68;;;7.60;;
52057;SDS011;38063;53.210;6.504;2023-05-10T13:06:05;10.95;;;8.38;;
52057;SDS011;38063;53.210;6.504;2023-05-10T13:08:31;10.23;;;7.90;;
52057;SDS011;38063;53.210;6.504;2023-05-10T13:11:01;11.02;;;7.63;;
52057;SDS011;38063;53.210;6.504;2023-05-10T13:13:27;10.50;;;8.00;;
52057;SDS011;38063;53.210;6.504;2023-05-10T13:15:53;12.07;;;7.78;;
52057;SDS011;38063;53.210;6.504;2023-05-10T13:18:19;10.00;;;8.20;;
52057;SDS011;38063;53.210;6.504;2023-05-10T13:20:45;11.20;;;8.30;;
52057;SDS011;38063;53.210;6.504;2023-05-10T13:23:11;10.98;;;8.80;;
52057;SDS011;38063;53.210;6.504;2023-05-10T13:25:36;11.40;;;7.93;;
52057;SDS011;38063;53.210;6.504;2023-05-10T13:28:02;11.75;;;8.38;;
52057;SDS011;38063;53.210;6.504;2023-05-10T13:30:28;11.65;;;8.40;;
52057;SDS011;38063;53.210;6.504;2023-05-10T13:32:54;12.88;;;8.25;;
52057;SDS011;38063;53.210;6.504;2023-05-10T13:35:19;13.88;;;8.68;;
52057;SDS011;38063;53.210;6.504;2023-05-10T13:37:45;12.65;;;8.35;;
52057;SDS011;38063;53.210;6.504;2023-05-10T13:40:11;12.88;;;8.50;;
52057;SDS011;38063;53.210;6.504;2023-05-10T13:42:37;11.82;;;7.53;;
52057;SDS011;38063;53.210;6.504;2023-05-10T13:45:03;12.35;;;8.32;;
52057;SDS011;38063;53.210;6.504;2023-05-10T13:47:29;12.82;;;8.75;;
52057;SDS011;38063;53.210;6.504;2023-05-10T13:49:54;10.75;;;8.38;;
52057;SDS011;38063;53.210;6.504;2023-05-10T13:52:21;10.63;;;7.95;;
52057;SDS011;38063;53.210;6.504;2023-05-10T13:54:46;13.18;;;8.18;;
52057;SDS011;38063;53.210;6.504;2023-05-10T13:57:12;11.57;;;8.30;;
52057;SDS011;38063;53.210;6.504;2023-05-10T13:59:39;11.43;;;8.75;;
52057;SDS011;38063;53.210;6.504;2023-05-10T14:02:04;12.02;;;8.88;;
52057;SDS011;38063;53.210;6.504;2023-05-10T14:04:31;13.30;;;8.65;;
52057;SDS011;38063;53.210;6.504;2023-05-10T14:06:56;12.90;;;8.70;;
52057;SDS011;38063;53.210;6.504;2023-05-10T14:09:22;13.43;;;8.65;;
52057;SDS011;38063;53.210;6.504;2023-05-10T14:11:48;14.48;;;8.65;;
52057;SDS011;38063;53.210;6.504;2023-05-10T14:14:14;14.60;;;9.30;;
52057;SDS011;38063;53.210;6.504;2023-05-10T14:16:43;14.35;;;9.05;;
52057;SDS011;38063;53.210;6.504;2023-05-10T14:19:10;14.15;;;9.45;;
52057;SDS011;38063;53.210;6.504;2023-05-10T14:21:36;13.25;;;9.57;;
52057;SDS011;38063;53.210;6.504;2023-05-10T14:24:02;13.18;;;9.00;;
52057;SDS011;38063;53.210;6.504;2023-05-10T14:26:27;14.40;;;10.13;;
52057;SDS011;38063;53.210;6.504;2023-05-10T14:28:53;14.48;;;9.77;;
52057;SDS011;38063;53.210;6.504;2023-05-10T14:31:19;12.43;;;9.07;;
52057;SDS011;38063;53.210;6.504;2023-05-10T14:33:45;13.20;;;9.57;;
52057;SDS011;38063;53.210;6.504;2023-05-10T14:36:11;11.10;;;8.52;;
52057;SDS011;38063;53.210;6.504;2023-05-10T14:38:38;11.82;;;8.57;;
52057;SDS011;38063;53.210;6.504;2023-05-10T14:41:04;15.20;;;8.93;;
52057;SDS011;38063;53.210;6.504;2023-05-10T14:43:29;13.27;;;9.30;;
52057;SDS011;38063;53.210;6.504;2023-05-10T14:45:55;12.10;;;9.02;;
52057;SDS011;38063;53.210;6.504;2023-05-10T14:48:21;13.85;;;9.68;;
52057;SDS011;38063;53.210;6.504;2023-05-10T14:50:46;11.93;;;9.30;;
52057;SDS011;38063;53.210;6.504;2023-05-10T14:53:12;16.35;;;10.30;;
52057;SDS011;38063;53.210;6.504;2023-05-10T14:55:38;13.70;;;10.10;;
52057;SDS011;38063;53.210;6.504;2023-05-10T14:58:04;11.63;;;9.07;;
52057;SDS011;38063;53.210;6.504;2023-05-10T15:00:30;13.10;;;9.32;;
52057;SDS011;38063;53.210;6.504;2023-05-10T15:02:56;13.68;;;9.43;;
52057;SDS011;38063;53.210;6.504;2023-05-10T15:05:22;16.38;;;10.60;;
52057;SDS011;38063;53.210;6.504;2023-05-10T15:07:48;13.20;;;10.02;;
52057;SDS011;38063;53.210;6.504;2023-05-10T15:10:14;15.50;;;10.77;;
52057;SDS011;38063;53.210;6.504;2023-05-10T15:12:40;15.05;;;10.60;;
52057;SDS011;38063;53.210;6.504;2023-05-10T15:15:06;14.63;;;10.30;;